Time;durP1;ratioP1;P1;durP2;ratioP2;P2;SDS_P1;SDS_P2;PMS_P1;PMS_P2;Temp;Humidity;BMP_temperature;BMP_pressure;BME280_temperature;BME280_humidity;BME280_pressure;Samples;Min_cycle;Max_cycle;Signal;HPM_P1;HPM_P2
2021/12/24 00:00:24;;;;;;;;;;;;;;;19.26;52.99;99491.66;2084787;28;19920;-41
2021/12/24 00:01:24;;;;;;;;;;;;;;;19.27;52.90;99485.13;2080806;28;20456;-41
2021/12/24 00:02:24;;;;;;;;;;;;;;;19.28;52.94;99489.59;2086394;28;19970;-41
2021/12/24 00:03:25;;;;;;;;;;;;;;;19.28;52.91;99478.69;2090884;28;19916;-42
2021/12/24 00:04:26;;;;;;;;;;;;;;;19.28;52.93;99480.56;2085933;28;19999;-41
2021/12/24 00:05:26;;;;;;;;;;;;;;;19.26;52.96;99480.72;2086219;28;20448;-41
2021/12/24 00:06:26;;;;;;;;;;;;;;;19.26;52.90;99475.25;2078668;28;20012;-41
2021/12/24 00:07:27;;;;;;;;;;;;;;;19.26;52.96;99464.31;2080253;28;19971;-41
2021/12/24 00:08:27;;;;;;;;;;;;;;;19.26;52.87;99464.31;2083432;28;19966;-41
2021/12/24 00:09:32;;;;;;;;;;;;;;;19.27;52.92;99471.47;2090545;28;20296;-41
2021/12/24 00:10:33;;;;;;;;;;;;;;;19.27;52.82;99466.00;2086188;28;20014;-40
2021/12/24 00:11:34;;;;;;;;;;;;;;;19.27;52.83;99463.28;2081536;28;19916;-41
2021/12/24 00:12:38;;;;;;;;;;;;;;;19.26;52.86;99452.53;2086811;28;19916;-40
2021/12/24 00:13:43;;;;;;;;;;;;;;;19.26;52.77;99450.66;2085409;28;19917;-42
2021/12/24 00:14:49;;;;;;;;;;;;;;;19.25;52.75;99451.66;2085814;28;19929;-41
2021/12/24 00:17:03;;;;;;;;;;;;;;;19.25;52.73;99446.19;2093032;28;20242;-41
2021/12/24 00:18:17;;;;;;;;;;;;;;;19.26;52.79;99445.19;2089388;28;20285;-40
2021/12/24 00:20:54;;;;;;;;;;;;;;;19.26;52.77;99449.81;2088231;28;19920;-41
2021/12/24 00:22:47;;;;;;;;;;;;;;;19.25;52.81;99451.66;2088476;28;19920;-41
2021/12/24 00:35:35;;;;;;;;;;;;;;;19.28;52.59;99424.03;2080787;28;20121;-41
2021/12/24 00:36:35;;;;;;;;;;;;;;;19.30;52.58;99420.25;2087009;28;19915;-41
2021/12/24 00:37:35;;;;;;;;;;;;;;;19.28;52.57;99413.09;2084796;28;19954;-41
2021/12/24 00:38:35;;;;;;;;;;;;;;;19.30;52.57;99421.09;2076283;28;19923;-41
2021/12/24 00:39:43;;;;;;;;;;;;;;;19.30;52.63;99420.25;2084322;28;19946;-41
2021/12/24 00:40:46;;;;;;;;;;;;;;;19.30;52.47;99415.63;2086170;28;19924;-40
2021/12/24 00:41:46;;;;;;;;;;;;;;;19.30;52.54;99414.78;2088335;28;19973;-41
2021/12/24 00:42:48;;;;;;;;;;;;;;;19.31;52.48;99416.53;2094571;28;20453;-41
2021/12/24 00:43:48;;;;;;;;;;;;;;;19.30;52.49;99412.91;2085640;28;19916;-41
2021/12/24 00:44:49;;;;;;;;;;;;;;;19.30;52.49;99420.25;2077728;28;19923;-41
2021/12/24 00:45:49;;;;;;;;;;;;;;;19.30;52.52;99412.06;2079060;28;19962;-41
2021/12/24 00:46:49;;;;;;;;;;;;;;;19.31;52.52;99411.06;2088614;28;19916;-41
2021/12/24 00:47:50;;;;;;;;;;;;;;;19.31;52.40;99411.06;2093072;28;20410;-41
2021/12/24 00:48:53;;;;;;;;;;;;;;;19.30;52.36;99415.63;2088184;28;19916;-41
2021/12/24 00:49:54;;;;;;;;;;;;;;;19.32;52.36;99412.75;2088225;28;20335;-41
2021/12/24 00:52:06;;;;;;;;;;;;;;;19.34;52.42;99414.28;2083497;28;20314;-41
2021/12/24 00:55:02;;;;;;;;;;;;;;;19.33;52.30;99415.31;2092355;28;19916;-41
2021/12/24 00:55:46;;;;;;;;;;;;;;;19.33;52.33;99403.50;2086257;28;19916;-41
2021/12/24 00:56:46;;;;;;;;;;;;;;;19.33;52.32;99403.50;2090879;28;19916;-41
2021/12/24 00:57:51;;;;;;;;;;;;;;;19.33;52.30;99398.94;2091726;28;19961;-41
2021/12/24 00:58:51;;;;;;;;;;;;;;;19.32;52.29;99399.09;2081442;28;20030;-42
2021/12/24 00:59:52;;;;;;;;;;;;;;;19.33;52.26;99404.41;2084632;28;19916;-41
2021/12/24 01:00:53;;;;;;;;;;;;;;;19.34;52.35;99405.25;2090604;28;19909;-41
2021/12/24 01:01:53;;;;;;;;;;;;;;;19.33;52.26;99392.59;2090545;28;19905;-41
2021/12/24 01:02:55;;;;;;;;;;;;;;;19.35;52.25;99401.47;2091870;28;19988;-41
2021/12/24 01:03:55;;;;;;;;;;;;;;;19.35;52.19;99398.75;2089129;28;20261;-41
2021/12/24 01:04:55;;;;;;;;;;;;;;;19.34;52.19;99400.63;2094419;28;20341;-41
2021/12/24 01:05:56;;;;;;;;;;;;;;;19.35;52.18;99401.47;2092197;28;19922;-41
2021/12/24 01:06:56;;;;;;;;;;;;;;;19.36;52.17;99405.94;2094060;28;19996;-41
2021/12/24 01:07:57;;;;;;;;;;;;;;;19.35;52.15;99402.31;2088184;28;20330;-41
2021/12/24 01:08:57;;;;;;;;;;;;;;;19.35;52.11;99401.47;2093656;28;19916;-41
2021/12/24 01:09:57;;;;;;;;;;;;;;;19.34;52.13;99395.16;2085571;28;19962;-41
2021/12/24 01:10:59;;;;;;;;;;;;;;;19.35;52.11;99393.28;2090709;28;19916;-41
2021/12/24 01:12:00;;;;;;;;;;;;;;;19.34;52.12;99395.16;2089505;28;19958;-42
2021/12/24 01:13:00;;;;;;;;;;;;;;;19.34;52.19;99397.03;2092030;28;19923;-41
2021/12/24 01:14:01;;;;;;;;;;;;;;;19.35;52.11;99406.94;2084162;28;20638;-41
2021/12/24 01:15:02;;;;;;;;;;;;;;;19.35;52.26;99398.75;2080945;28;19980;-41
2021/12/24 01:16:12;;;;;;;;;;;;;;;19.35;52.11;99398.75;2088788;28;20078;-41
2021/12/24 01:17:52;;;;;;;;;;;;;;;19.33;52.05;99396.19;2092514;28;20038;-41
2021/12/24 01:18:54;;;;;;;;;;;;;;;19.34;52.11;99395.16;2086476;28;19920;-41
2021/12/24 01:20:00;;;;;;;;;;;;;;;19.35;52.02;99390.53;2094108;28;19916;-41
2021/12/24 01:21:24;;;;;;;;;;;;;;;19.34;51.96;99391.59;2091893;28;19940;-42
2021/12/24 01:24:39;;;;;;;;;;;;;;;19.35;51.98;99385.06;2091269;28;20502;-41
2021/12/24 01:25:44;;;;;;;;;;;;;;;19.34;52.01;99383.38;2087553;28;19908;-41
2021/12/24 01:26:57;;;;;;;;;;;;;;;19.34;52.04;99389.69;2089552;28;19972;-41
2021/12/24 01:38:33;;;;;;;;;;;;;;;19.32;51.90;99374.50;2078176;28;19908;-41
2021/12/24 01:41:20;;;;;;;;;;;;;;;19.32;51.86;99380.81;2093139;28;19926;-41
2021/12/24 01:43:32;;;;;;;;;;;;;;;19.32;51.92;99374.50;2091653;28;20006;-40
2021/12/24 01:44:32;;;;;;;;;;;;;;;19.31;51.83;99370.06;2093555;28;20068;-41
2021/12/24 01:45:33;;;;;;;;;;;;;;;19.32;51.77;99369.88;2094381;28;19916;-41
2021/12/24 01:46:34;;;;;;;;;;;;;;;19.31;51.88;99372.78;2093130;28;20006;-41
2021/12/24 01:47:34;;;;;;;;;;;;;;;19.30;51.81;99365.59;2095179;28;19920;-41
2021/12/24 01:48:35;;;;;;;;;;;;;;;19.30;51.83;99365.59;2090186;28;19916;-41
2021/12/24 01:49:35;;;;;;;;;;;;;;;19.31;51.87;99367.34;2093167;28;19916;-41
2021/12/24 01:50:37;;;;;;;;;;;;;;;19.31;51.74;99364.59;2093183;28;20401;-41
2021/12/24 01:51:37;;;;;;;;;;;;;;;19.30;51.61;99360.13;2094337;28;19909;-41
2021/12/24 01:52:38;;;;;;;;;;;;;;;19.31;51.79;99361.88;2085143;28;20318;-41
2021/12/24 01:53:38;;;;;;;;;;;;;;;19.28;51.77;99355.72;2086118;28;19943;-41
2021/12/24 01:54:39;;;;;;;;;;;;;;;19.30;51.84;99360.13;2082683;28;19924;-41
2021/12/24 01:55:39;;;;;;;;;;;;;;;19.28;51.81;99358.44;2084712;28;20521;-41
2021/12/24 01:56:40;;;;;;;;;;;;;;;19.30;51.78;99357.41;2093437;28;20049;-41
2021/12/24 01:57:41;;;;;;;;;;;;;;;19.30;51.80;99357.41;2088360;28;19968;-41
2021/12/24 01:58:42;;;;;;;;;;;;;;;19.25;51.86;99347.81;2091876;28;20133;-42
2021/12/24 01:59:42;;;;;;;;;;;;;;;19.30;51.90;99360.13;2096127;28;19961;-41
2021/12/24 02:00:44;;;;;;;;;;;;;;;19.27;51.82;99353.97;2095153;28;19908;-41
2021/12/24 02:01:44;;;;;;;;;;;;;;;19.27;51.79;99348.53;2088219;28;19943;-41
2021/12/24 02:02:45;;;;;;;;;;;;;;;19.28;51.76;99346.66;2093058;28;20584;-41
2021/12/24 02:03:45;;;;;;;;;;;;;;;19.27;51.74;99339.47;2095124;28;19931;-40
2021/12/24 02:04:45;;;;;;;;;;;;;;;19.27;51.73;99353.13;2094772;28;19920;-41
2021/12/24 02:05:46;;;;;;;;;;;;;;;19.28;51.75;99347.50;2091205;28;19966;-41
2021/12/24 02:06:47;;;;;;;;;;;;;;;19.28;51.79;99350.25;2093804;28;19915;-41
2021/12/24 02:07:47;;;;;;;;;;;;;;;19.28;51.72;99363.91;2093707;28;20012;-42
2021/12/24 02:08:47;;;;;;;;;;;;;;;19.28;51.80;99363.91;2090679;28;19928;-41
2021/12/24 02:09:48;;;;;;;;;;;;;;;19.28;51.76;99361.19;2094259;28;20576;-41
2021/12/24 02:10:49;;;;;;;;;;;;;;;19.27;51.65;99359.44;2087277;28;20018;-40
2021/12/24 02:11:49;;;;;;;;;;;;;;;19.30;51.72;99371.06;2085137;28;20085;-41
2021/12/24 02:12:50;;;;;;;;;;;;;;;19.30;51.71;99365.59;2085533;28;19963;-41
2021/12/24 02:13:50;;;;;;;;;;;;;;;19.28;51.57;99358.44;2093572;28;19943;-41
2021/12/24 02:14:54;;;;;;;;;;;;;;;19.28;51.80;99352.97;2094522;28;19924;-41
2021/12/24 02:17:28;;;;;;;;;;;;;;;19.28;51.75;99346.66;2093671;28;19916;-41
2021/12/24 02:29:08;;;;;;;;;;;;;;;19.26;51.61;99333.16;2083700;28;19921;-40
2021/12/24 02:30:09;;;;;;;;;;;;;;;19.27;51.50;99332.13;2086417;28;19904;-40
2021/12/24 02:31:14;;;;;;;;;;;;;;;19.28;51.58;99324.81;2087395;28;19952;-40
2021/12/24 02:32:14;;;;;;;;;;;;;;;19.25;51.53;99325.97;2091033;28;20203;-40
2021/12/24 02:33:15;;;;;;;;;;;;;;;19.26;51.56;99322.22;2093096;28;19969;-39
2021/12/24 02:34:15;;;;;;;;;;;;;;;19.26;51.56;99330.44;2095499;28;19912;-40
2021/12/24 02:35:18;;;;;;;;;;;;;;;19.26;51.64;99327.69;2088334;28;19930;-39
2021/12/24 02:36:21;;;;;;;;;;;;;;;19.25;51.53;99317.78;2094228;28;19972;-40
2021/12/24 02:37:22;;;;;;;;;;;;;;;19.25;51.52;99315.03;2094119;28;20015;-39
2021/12/24 02:38:22;;;;;;;;;;;;;;;19.26;51.51;99315.91;2093171;28;19916;-40
2021/12/24 02:39:22;;;;;;;;;;;;;;;19.26;51.48;99310.44;2093558;28;19916;-40
2021/12/24 02:40:23;;;;;;;;;;;;;;;19.26;51.50;99308.56;2098784;28;20303;-39
2021/12/24 02:41:23;;;;;;;;;;;;;;;19.26;51.53;99308.56;2097961;28;19912;-48
2021/12/24 02:42:23;;;;;;;;;;;;;;;19.25;51.42;99304.09;2086488;28;19917;-48
2021/12/24 02:43:25;;;;;;;;;;;;;;;19.25;51.50;99304.09;2092640;28;19923;-47
2021/12/24 02:44:25;;;;;;;;;;;;;;;19.25;51.51;99303.25;2095333;28;19915;-48
2021/12/24 02:45:26;;;;;;;;;;;;;;;19.25;51.48;99298.66;2097768;28;20415;-47
2021/12/24 02:48:09;;;;;;;;;;;;;;;19.25;51.45;99286.88;2076600;28;19991;-47
2021/12/24 02:49:14;;;;;;;;;;;;;;;19.25;51.45;99286.88;2096880;28;19916;-48
2021/12/24 02:54:55;;;;;;;;;;;;;;;19.24;51.35;99286.03;2088993;28;20504;-47
2021/12/24 02:55:56;;;;;;;;;;;;;;;19.25;51.42;99286.88;2095114;28;19938;-47
2021/12/24 02:57:06;;;;;;;;;;;;;;;19.25;51.42;99284.13;2091116;28;20365;-41
2021/12/24 02:58:06;;;;;;;;;;;;;;;19.24;51.44;99286.03;2095750;28;19967;-41
2021/12/24 02:59:11;;;;;;;;;;;;;;;19.25;51.48;99284.13;2101052;28;19921;-41
2021/12/24 03:00:15;;;;;;;;;;;;;;;19.25;51.36;99289.59;2084459;28;19923;-41
2021/12/24 03:01:18;;;;;;;;;;;;;;;19.24;51.52;99290.63;2089884;28;19917;-41
2021/12/24 03:02:19;;;;;;;;;;;;;;;19.24;51.33;99291.47;2090532;28;19912;-41
2021/12/24 03:03:19;;;;;;;;;;;;;;;19.24;51.35;99291.47;2094304;28;20261;-41
2021/12/24 03:04:19;;;;;;;;;;;;;;;19.24;51.43;99296.94;2087010;28;19912;-41
2021/12/24 03:05:21;;;;;;;;;;;;;;;19.23;51.38;99295.25;2090462;28;19912;-41
2021/12/24 03:06:23;;;;;;;;;;;;;;;19.23;51.32;99299.84;2089509;28;19916;-42
2021/12/24 03:07:23;;;;;;;;;;;;;;;19.21;51.34;99291.84;2086643;28;19917;-41
2021/12/24 03:08:24;;;;;;;;;;;;;;;19.22;51.52;99288.06;2087480;28;19928;-41
2021/12/24 03:09:24;;;;;;;;;;;;;;;19.22;51.46;99296.25;2088045;28;19913;-41
2021/12/24 03:10:24;;;;;;;;;;;;;;;19.22;51.40;99285.34;2086758;28;19916;-41
2021/12/24 03:11:25;;;;;;;;;;;;;;;19.22;51.44;99292.69;2094761;28;19927;-41
2021/12/24 03:12:27;;;;;;;;;;;;;;;19.21;51.37;99296.44;2091850;28;19988;-41
2021/12/24 03:13:28;;;;;;;;;;;;;;;19.21;51.50;99283.63;2090155;28;20329;-41
2021/12/24 03:14:29;;;;;;;;;;;;;;;19.21;51.46;99291.00;2082459;28;20394;-42
2021/12/24 03:15:29;;;;;;;;;;;;;;;19.21;51.36;99291.84;2088590;28;19920;-41
2021/12/24 03:16:30;;;;;;;;;;;;;;;19.21;51.38;99289.09;2086854;28;19938;-40
2021/12/24 03:17:31;;;;;;;;;;;;;;;19.21;51.39;99289.09;2088743;28;20022;-42
2021/12/24 03:18:34;;;;;;;;;;;;;;;19.20;51.42;99284.66;2090821;28;19916;-41
2021/12/24 03:19:35;;;;;;;;;;;;;;;19.20;51.50;99287.38;2085129;28;19924;-41
2021/12/24 03:20:35;;;;;;;;;;;;;;;19.20;51.41;99292.84;2090281;28;19952;-41
2021/12/24 03:21:55;;;;;;;;;;;;;;;19.20;51.42;99292.00;2089403;28;20718;-41
2021/12/24 03:23:21;;;;;;;;;;;;;;;19.19;51.46;99299.34;2090054;28;20367;-41
2021/12/24 03:25:21;;;;;;;;;;;;;;;19.19;51.38;99304.81;2093793;28;19916;-41
2021/12/24 03:26:22;;;;;;;;;;;;;;;19.19;51.34;99304.81;2091197;28;19950;-41
2021/12/24 03:27:22;;;;;;;;;;;;;;;19.18;51.42;99300.38;2095113;28;20407;-42
2021/12/24 03:28:23;;;;;;;;;;;;;;;19.18;51.37;99297.66;2091819;28;20328;-41
2021/12/24 03:29:23;;;;;;;;;;;;;;;19.19;51.41;99298.50;2085917;28;19920;-41
2021/12/24 03:30:23;;;;;;;;;;;;;;;19.19;51.38;99301.22;2084510;28;19979;-41
2021/12/24 03:31:24;;;;;;;;;;;;;;;19.18;51.34;99305.84;2092335;28;19928;-41
2021/12/24 03:32:24;;;;;;;;;;;;;;;19.18;51.30;99308.56;2093518;28;19927;-41
2021/12/24 03:33:25;;;;;;;;;;;;;;;19.18;51.34;99302.22;2087012;28;20382;-48
2021/12/24 03:34:25;;;;;;;;;;;;;;;19.18;51.17;99303.13;2089451;28;19942;-41
2021/12/24 03:35:26;;;;;;;;;;;;;;;19.19;51.40;99303.97;2095466;28;19920;-42
2021/12/24 03:36:26;;;;;;;;;;;;;;;19.17;51.34;99306.84;2091478;28;20420;-41
2021/12/24 03:37:27;;;;;;;;;;;;;;;19.18;51.37;99305.84;2092967;28;20162;-41
2021/12/24 03:38:28;;;;;;;;;;;;;;;19.18;51.35;99302.22;2093891;28;20511;-40
2021/12/24 03:39:28;;;;;;;;;;;;;;;19.17;51.38;99311.47;2092060;28;19946;-40
2021/12/24 03:40:28;;;;;;;;;;;;;;;19.18;51.35;99308.56;2089309;28;19916;-41
2021/12/24 03:41:29;;;;;;;;;;;;;;;19.17;51.36;99306.84;2082282;28;19975;-41
2021/12/24 03:42:29;;;;;;;;;;;;;;;19.16;51.34;99310.63;2082651;28;19921;-41
2021/12/24 03:43:30;;;;;;;;;;;;;;;19.17;51.32;99312.31;2089442;28;20223;-41
2021/12/24 03:44:35;;;;;;;;;;;;;;;19.18;51.33;99319.50;2093830;28;19916;-41
2021/12/24 03:45:48;;;;;;;;;;;;;;;19.19;51.23;99315.72;2092248;28;19916;-41
2021/12/24 03:47:00;;;;;;;;;;;;;;;19.19;51.30;99315.72;2090619;28;19919;-40
2021/12/24 03:48:12;;;;;;;;;;;;;;;19.19;51.33;99314.88;2089637;28;19917;-41
2021/12/24 03:49:21;;;;;;;;;;;;;;;19.22;51.21;99320.00;2089250;28;20125;-42
2021/12/24 03:50:25;;;;;;;;;;;;;;;19.19;51.33;99310.25;2093286;28;20007;-42
2021/12/24 03:55:06;;;;;;;;;;;;;;;19.18;51.43;99302.22;2092571;28;19916;-41
2021/12/24 03:56:07;;;;;;;;;;;;;;;19.17;51.47;99301.38;2094966;28;20987;-41
2021/12/24 03:57:07;;;;;;;;;;;;;;;19.16;51.53;99296.97;2089734;28;19924;-41
2021/12/24 03:58:07;;;;;;;;;;;;;;;19.16;51.54;99299.69;2090749;28;20166;-41
2021/12/24 03:59:08;;;;;;;;;;;;;;;19.15;51.46;99297.13;2089256;28;19944;-42
2021/12/24 04:00:11;;;;;;;;;;;;;;;19.15;51.48;99292.50;2093371;28;19916;-41
2021/12/24 04:01:11;;;;;;;;;;;;;;;19.14;51.44;99296.25;2090256;28;19920;-41
2021/12/24 04:02:12;;;;;;;;;;;;;;;19.14;51.49;99296.25;2086690;28;20509;-41
2021/12/24 04:03:12;;;;;;;;;;;;;;;19.14;51.50;99295.41;2092402;28;19923;-41
2021/12/24 04:04:12;;;;;;;;;;;;;;;19.14;51.55;99290.81;2093969;28;20308;-41
2021/12/24 04:05:13;;;;;;;;;;;;;;;19.13;51.62;99291.81;2093590;28;20457;-41
2021/12/24 04:06:13;;;;;;;;;;;;;;;19.14;51.60;99285.34;2092120;28;20323;-41
2021/12/24 04:07:14;;;;;;;;;;;;;;;19.13;51.72;99286.34;2093844;28;19923;-41
2021/12/24 04:08:15;;;;;;;;;;;;;;;19.13;51.70;99283.59;2091271;28;19952;-41
2021/12/24 04:09:15;;;;;;;;;;;;;;;19.12;51.70;99287.38;2085786;28;19916;-41
2021/12/24 04:11:37;;;;;;;;;;;;;;;19.12;51.82;99286.53;2093575;28;20287;-41
2021/12/24 04:12:37;;;;;;;;;;;;;;;19.11;51.74;99290.28;2091757;28;19916;-41
2021/12/24 04:13:38;;;;;;;;;;;;;;;19.10;51.78;99289.44;2087203;28;19920;-41
2021/12/24 04:14:38;;;;;;;;;;;;;;;19.11;51.80;99291.16;2089627;28;19916;-41
2021/12/24 04:15:39;;;;;;;;;;;;;;;19.11;51.86;99285.69;2090106;28;20378;-40
2021/12/24 04:16:39;;;;;;;;;;;;;;;19.10;51.75;99292.16;2087177;28;20266;-41
2021/12/24 04:17:42;;;;;;;;;;;;;;;19.11;51.95;99279.34;2082978;28;19920;-41
2021/12/24 04:19:18;;;;;;;;;;;;;;;19.10;51.94;99286.69;2094505;28;19911;-41
2021/12/24 04:25:12;;;;;;;;;;;;;;;19.08;51.91;99285.16;2082570;28;19917;-41
2021/12/24 04:26:12;;;;;;;;;;;;;;;19.07;51.93;99284.31;2089665;28;21231;-41
2021/12/24 04:27:12;;;;;;;;;;;;;;;19.07;51.92;99284.31;2093219;28;20774;-41
2021/12/24 04:28:13;;;;;;;;;;;;;;;19.07;52.01;99284.31;2085456;28;20699;-41
2021/12/24 04:29:13;;;;;;;;;;;;;;;19.07;51.96;99278.84;2077750;28;20165;-41
2021/12/24 04:30:18;;;;;;;;;;;;;;;19.06;52.01;99279.88;2085059;28;19920;-41
2021/12/24 04:31:23;;;;;;;;;;;;;;;19.06;52.06;99285.34;2086386;28;20393;-41
2021/12/24 04:32:33;;;;;;;;;;;;;;;19.06;52.06;99282.59;2078392;28;20213;-41
2021/12/24 04:33:39;;;;;;;;;;;;;;;19.06;51.98;99277.16;2077732;28;19957;-41
2021/12/24 04:34:44;;;;;;;;;;;;;;;19.06;52.09;99271.69;2084782;28;19991;-41
2021/12/24 04:35:56;;;;;;;;;;;;;;;19.05;52.10;99268.06;2083624;28;20369;-41
2021/12/24 04:37:38;;;;;;;;;;;;;;;19.04;52.03;99263.66;2094352;28;19919;-41
2021/12/24 04:38:32;;;;;;;;;;;;;;;19.03;52.06;99261.06;2096068;28;19911;-41
2021/12/24 05:01:41;;;;;;;;;;;;;;;19.00;52.25;99272.34;2092877;28;20475;-40
2021/12/24 05:03:46;;;;;;;;;;;;;;;18.99;52.15;99271.50;2091765;28;20025;-41
2021/12/24 05:04:55;;;;;;;;;;;;;;;19.00;52.21;99281.38;2100912;28;19915;-41
2021/12/24 05:06:09;;;;;;;;;;;;;;;18.99;52.17;99282.44;2094032;28;19997;-43
2021/12/24 05:07:28;;;;;;;;;;;;;;;18.99;52.12;99282.44;2075794;28;20068;-42
2021/12/24 05:08:39;;;;;;;;;;;;;;;18.99;52.15;99282.44;2082375;28;19920;-42
2021/12/24 05:09:41;;;;;;;;;;;;;;;18.98;52.15;99274.38;2086868;28;19916;-42
2021/12/24 05:10:42;;;;;;;;;;;;;;;18.99;52.10;99266.03;2094974;28;20656;-41
2021/12/24 05:11:42;;;;;;;;;;;;;;;18.98;52.27;99252.53;2092618;28;19912;-41
2021/12/24 05:12:43;;;;;;;;;;;;;;;18.98;52.30;99253.38;2092381;28;20312;-40
2021/12/24 05:13:43;;;;;;;;;;;;;;;18.98;52.26;99247.06;2094106;28;19947;-41
2021/12/24 05:14:43;;;;;;;;;;;;;;;18.97;52.31;99239.91;2089546;28;20235;-41
2021/12/24 05:15:47;;;;;;;;;;;;;;;18.97;52.25;99234.47;2083650;28;19944;-42
2021/12/24 05:16:50;;;;;;;;;;;;;;;18.96;52.31;99219.06;2084532;28;19916;-41
2021/12/24 05:18:11;;;;;;;;;;;;;;;18.97;52.38;99223.53;2082444;28;19994;-41
2021/12/24 05:21:34;;;;;;;;;;;;;;;18.95;52.34;99217.38;2084758;28;19917;-42
2021/12/24 05:22:34;;;;;;;;;;;;;;;18.95;52.28;99222.84;2084043;28;20003;-41
2021/12/24 05:23:34;;;;;;;;;;;;;;;18.95;52.20;99225.56;2090662;28;19924;-41
2021/12/24 05:24:35;;;;;;;;;;;;;;;18.95;52.23;99217.38;2087984;28;19916;-41
2021/12/24 05:25:40;;;;;;;;;;;;;;;18.95;52.33;99214.66;2093896;28;19904;-41
2021/12/24 05:26:43;;;;;;;;;;;;;;;18.94;52.29;99215.69;2084020;28;19924;-41
2021/12/24 05:27:43;;;;;;;;;;;;;;;18.94;52.22;99207.50;2085211;28;19916;-41
2021/12/24 05:28:43;;;;;;;;;;;;;;;18.94;52.33;99202.03;2087426;28;20192;-42
2021/12/24 05:29:43;;;;;;;;;;;;;;;18.94;52.35;99199.31;2084192;28;19916;-41
2021/12/24 05:30:44;;;;;;;;;;;;;;;18.93;52.30;99198.44;2086153;28;20322;-41
2021/12/24 05:31:45;;;;;;;;;;;;;;;18.94;52.16;99194.69;2091133;28;19924;-41
2021/12/24 05:32:45;;;;;;;;;;;;;;;18.93;52.26;99192.13;2084749;28;19915;-41
2021/12/24 05:33:46;;;;;;;;;;;;;;;18.93;52.20;99189.38;2088141;28;19916;-41
2021/12/24 05:34:46;;;;;;;;;;;;;;;18.93;52.27;99189.38;2080213;28;20278;-41
2021/12/24 05:35:47;;;;;;;;;;;;;;;18.93;52.25;99187.50;2084302;28;19958;-41
2021/12/24 05:36:48;;;;;;;;;;;;;;;18.92;52.02;99194.00;2083968;28;19909;-41
2021/12/24 05:37:48;;;;;;;;;;;;;;;18.93;52.40;99197.59;2080821;28;19975;-41
2021/12/24 05:38:49;;;;;;;;;;;;;;;18.93;52.19;99205.78;2088623;28;19916;-41
2021/12/24 05:39:49;;;;;;;;;;;;;;;18.93;52.29;99212.06;2089507;28;19952;-41
2021/12/24 05:40:50;;;;;;;;;;;;;;;18.92;52.25;99215.84;2085930;28;19961;-41
2021/12/24 05:41:50;;;;;;;;;;;;;;;18.93;52.33;99222.16;2084668;28;19911;-41
2021/12/24 05:42:51;;;;;;;;;;;;;;;18.93;52.20;99216.69;2082891;28;19943;-41
2021/12/24 05:43:51;;;;;;;;;;;;;;;18.92;52.32;99220.47;2086463;28;20343;-41
2021/12/24 05:44:51;;;;;;;;;;;;;;;18.92;52.27;99215.00;2081706;28;19923;-41
2021/12/24 05:45:52;;;;;;;;;;;;;;;18.92;52.32;99220.47;2085915;28;19909;-41
2021/12/24 05:46:52;;;;;;;;;;;;;;;18.91;52.29;99208.66;2084496;28;19917;-41
2021/12/24 05:47:52;;;;;;;;;;;;;;;18.92;52.23;99215.00;2083852;28;19908;-42
2021/12/24 05:48:53;;;;;;;;;;;;;;;18.91;52.28;99221.47;2085623;28;19912;-41
2021/12/24 05:49:53;;;;;;;;;;;;;;;18.90;52.30;99222.50;2080977;28;20223;-42
2021/12/24 05:50:53;;;;;;;;;;;;;;;18.91;52.23;99224.19;2077449;28;20080;-40
2021/12/24 05:51:54;;;;;;;;;;;;;;;18.89;52.34;99226.25;2094719;28;19938;-41
2021/12/24 05:52:54;;;;;;;;;;;;;;;18.91;52.28;99219.59;2084613;28;20233;-41
2021/12/24 05:53:54;;;;;;;;;;;;;;;18.90;52.28;99223.34;2083702;28;20378;-41
2021/12/24 05:54:55;;;;;;;;;;;;;;;18.91;52.25;99224.19;2089692;28;19908;-41
2021/12/24 05:55:55;;;;;;;;;;;;;;;18.92;52.15;99224.03;2080680;28;20377;-42
2021/12/24 05:56:55;;;;;;;;;;;;;;;18.91;52.11;99219.59;2084414;28;20135;-41
2021/12/24 05:57:56;;;;;;;;;;;;;;;18.89;52.35;99215.31;2077057;28;19917;-41
2021/12/24 05:58:56;;;;;;;;;;;;;;;18.91;52.29;99218.75;2079069;28;19963;-41
2021/12/24 05:59:56;;;;;;;;;;;;;;;18.92;52.10;99209.53;2085739;28;19946;-43
2021/12/24 06:00:57;;;;;;;;;;;;;;;18.93;52.17;99212.06;2079943;28;20160;-44
2021/12/24 06:01:57;;;;;;;;;;;;;;;18.94;52.11;99218.41;2080916;28;19916;-43
2021/12/24 06:02:57;;;;;;;;;;;;;;;18.93;52.05;99222.16;2080035;28;19921;-43
2021/12/24 06:03:57;;;;;;;;;;;;;;;18.93;52.04;99222.16;2080294;28;20932;-44
2021/12/24 06:04:58;;;;;;;;;;;;;;;18.92;52.02;99223.19;2081789;28;19961;-41
2021/12/24 06:05:58;;;;;;;;;;;;;;;18.93;52.03;99227.63;2083482;28;19951;-41
2021/12/24 06:06:58;;;;;;;;;;;;;;;18.95;52.11;99228.31;2092789;28;20310;-40
2021/12/24 06:07:59;;;;;;;;;;;;;;;18.93;52.07;99220.28;2085071;28;19916;-41
2021/12/24 06:08:59;;;;;;;;;;;;;;;18.92;52.05;99215.00;2084696;28;20018;-40
2021/12/24 06:09:59;;;;;;;;;;;;;;;18.92;52.14;99215.84;2090828;28;19993;-41
2021/12/24 06:11:00;;;;;;;;;;;;;;;18.92;52.07;99218.56;2089103;28;19908;-41
2021/12/24 06:12:00;;;;;;;;;;;;;;;18.92;51.94;99215.00;2078276;28;19936;-41
2021/12/24 06:13:02;;;;;;;;;;;;;;;18.92;52.13;99215.84;2084580;28;19980;-40
2021/12/24 06:14:09;;;;;;;;;;;;;;;18.92;52.07;99209.53;2081943;28;19996;-41
2021/12/24 06:15:10;;;;;;;;;;;;;;;18.94;52.10;99211.06;2084403;28;20336;-41
2021/12/24 06:16:10;;;;;;;;;;;;;;;18.94;52.19;99210.22;2083948;28;19920;-42
2021/12/24 06:17:16;;;;;;;;;;;;;;;18.94;52.19;99202.03;2084071;28;20382;-41
2021/12/24 06:18:37;;;;;;;;;;;;;;;18.92;52.12;99206.81;2083921;28;19912;-41
2021/12/24 06:19:38;;;;;;;;;;;;;;;18.92;52.22;99204.06;2083803;28;20615;-42
2021/12/24 06:20:39;;;;;;;;;;;;;;;18.91;52.32;99208.66;2082170;28;19939;-42
2021/12/24 06:21:39;;;;;;;;;;;;;;;18.91;52.00;99205.09;2083264;28;20361;-41
2021/12/24 06:22:39;;;;;;;;;;;;;;;18.90;51.95;99206.13;2079159;28;19967;-40
2021/12/24 06:23:40;;;;;;;;;;;;;;;18.89;52.13;99209.84;2085808;28;20001;-41
2021/12/24 06:24:41;;;;;;;;;;;;;;;18.89;52.30;99215.31;2082251;28;20182;-41
2021/12/24 06:25:41;;;;;;;;;;;;;;;18.89;52.37;99209.84;2091623;28;19920;-40
2021/12/24 06:26:41;;;;;;;;;;;;;;;18.87;52.32;99211.94;2084637;28;19959;-41
2021/12/24 06:27:41;;;;;;;;;;;;;;;18.88;52.32;99213.63;2082794;28;20680;-41
2021/12/24 06:28:42;;;;;;;;;;;;;;;18.92;52.26;99215.00;2084345;28;20101;-40
2021/12/24 06:29:42;;;;;;;;;;;;;;;18.92;52.36;99215.00;2081037;28;20454;-40
2021/12/24 06:30:42;;;;;;;;;;;;;;;18.95;52.18;99203.72;2085682;28;19970;-40
2021/12/24 06:31:43;;;;;;;;;;;;;;;18.98;52.35;99215.16;2080963;28;20250;-41
2021/12/24 06:32:43;;;;;;;;;;;;;;;19.00;52.24;99206.81;2081697;28;19927;-42
2021/12/24 06:33:44;;;;;;;;;;;;;;;19.02;52.19;99216.53;2085977;28;19908;-42
2021/12/24 06:34:44;;;;;;;;;;;;;;;19.05;52.37;99215.34;2085300;28;20330;-45
2021/12/24 06:35:44;;;;;;;;;;;;;;;19.08;52.43;99214.13;2078158;28;19915;-42
2021/12/24 06:36:47;;;;;;;;;;;;;;;19.08;52.33;99214.97;2084895;28;19920;-42
2021/12/24 06:37:48;;;;;;;;;;;;;;;19.10;52.29;99212.94;2079150;28;19948;-41
2021/12/24 06:38:48;;;;;;;;;;;;;;;19.10;52.41;99210.22;2079516;28;20339;-41
2021/12/24 06:39:48;;;;;;;;;;;;;;;19.12;52.39;99210.03;2083197;28;20497;-41
2021/12/24 06:40:49;;;;;;;;;;;;;;;19.13;52.36;99198.94;2086444;28;19915;-40
2021/12/24 06:41:49;;;;;;;;;;;;;;;19.12;52.34;99194.50;2084067;28;19934;-41
2021/12/24 06:42:49;;;;;;;;;;;;;;;19.15;52.33;99191.41;2083330;28;21008;-40
2021/12/24 06:43:50;;;;;;;;;;;;;;;19.16;52.36;99186.84;2081329;28;19909;-41
2021/12/24 06:44:50;;;;;;;;;;;;;;;19.16;52.36;99179.47;2083990;28;19922;-40
2021/12/24 06:45:50;;;;;;;;;;;;;;;19.16;52.27;99184.94;2077997;28;19916;-40
2021/12/24 06:46:51;;;;;;;;;;;;;;;19.15;52.32;99172.28;2076115;28;19921;-42
2021/12/24 06:47:52;;;;;;;;;;;;;;;19.16;52.24;99173.16;2073679;28;19921;-43
2021/12/24 06:48:56;;;;;;;;;;;;;;;19.17;52.18;99185.78;2078764;28;19921;-41
2021/12/24 06:49:56;;;;;;;;;;;;;;;19.16;52.32;99187.69;2082561;28;20482;-42
2021/12/24 06:50:56;;;;;;;;;;;;;;;19.16;52.30;99184.94;2083754;28;19939;-41
2021/12/24 06:51:57;;;;;;;;;;;;;;;19.16;52.21;99186.84;2082281;28;20729;-41
2021/12/24 06:52:57;;;;;;;;;;;;;;;19.18;52.33;99198.41;2087429;28;20348;-41